Latest Weather Observations for Sunshine Coast Airport

IDQ60801

Issued at 4:02 pm EST Sunday 15 September 2019 (issued every 10 minutes, with the page automatically refreshed every 10 minutes)

About weather observations | Map of weather stations | Latest weather observations for QLD | Other Formats
Station Details ID: 040861 Name: SUNSHINE COAST AIRPORT Lat: -26.60 Lon: 153.09 Height: 3.42 m
Data from the previous 72 hours. | See also: Recent months at Sunshine Coast Airport
Date/Time
EST
Temp
°C
App
Temp
°C
Dew
Point
°C
Rel
Hum
%
Delta-T
°C
Wind Press
QNH
hPa
Press
MSL
hPa
Rain since
9am
mm
Dir  Spd
km/h
Gust
km/h
Spd
kts
Gust
kts
15/04:00pm 21.4 18.7 12.8 58 4.9 ENE 19 24 10 13 1022.6 1022.5 0.0
15/03:30pm 21.6 18.8 12.7 57 5.1 NE 19 24 10 13 1022.5 1022.4 0.0
15/03:00pm 21.8 19.6 12.1 54 5.4 ENE 15 20 8 11 1022.8 1022.7 0.0
15/02:30pm 22.3 20.3 12.8 55 5.4 ENE 15 19 8 10 1022.8 1022.7 0.0
15/02:00pm 22.7 20.8 12.9 54 5.6 ENE 15 19 8 10 1023.1 1023.0 0.0
15/01:30pm 22.5 20.6 13.0 55 5.4 E 15 17 8 9 1023.3 1023.2 0.0
15/01:00pm 22.4 20.9 13.2 56 5.3 ENE 13 17 7 9 1023.8 1023.7 0.0
15/12:30pm 22.5 21.0 13.0 55 5.4 E 13 17 7 9 1024.2 1024.1 0.0
15/12:00pm 21.6 20.7 13.8 61 4.5 SE 11 19 6 10 1024.5 1024.4 0.0
15/11:30am 21.7 21.7 15.1 66 3.9 SE 9 17 5 9 1024.6 1024.5 0.0
15/11:00am 21.5 20.6 14.9 66 3.9 ESE 13 19 7 10 1024.8 1024.7 0.0
15/10:30am 21.1 19.5 14.0 64 4.1 SE 15 17 8 9 1025.2 1025.1 0.0
15/10:00am 21.4 20.1 13.8 62 4.4 SE 13 19 7 10 1025.4 1025.3 0.0
15/09:30am 21.1 20.0 14.3 65 4.0 SE 13 17 7 9 1025.5 1025.4 0.0
15/09:00am 21.1 20.4 14.3 65 3.9 SE 11 17 6 9 1025.4 1025.3 0.0
15/08:30am 20.4 19.1 13.8 66 3.8 SSE 13 17 7 9 1025.4 1025.3 0.0
15/08:00am 19.7 18.5 14.1 70 3.2 SSE 13 19 7 10 1025.2 1025.1 0.0
15/07:30am 18.3 17.5 14.0 76 2.5 SSW 11 13 6 7 1025.1 1025.0 0.0
15/07:00am 16.1 16.0 13.9 87 1.2 SW 7 9 4 5 1024.6 1024.5 0.0
15/06:30am 14.6 14.4 13.1 91 0.8 WSW 6 9 3 5 1024.1 1024.0 0.0
15/06:00am 14.2 13.2 12.4 89 1.0 SW 9 11 5 6 1023.7 1023.6 0.0
15/05:30am 14.7 13.5 12.7 88 1.1 SW 11 13 6 7 1023.3 1023.2 0.0
15/05:00am 14.8 14.0 12.8 88 1.1 SW 9 11 5 6 1023.1 1023.0 0.0
15/04:30am 14.3 13.9 12.5 89 1.0 WSW 6 7 3 4 1022.9 1022.8 0.0
15/04:00am 14.5 13.5 12.4 87 1.1 W 9 9 5 5 1022.7 1022.6 0.0
15/03:30am 15.1 13.8 12.6 85 1.4 SW 11 11 6 6 1022.4 1022.3 0.0
15/03:00am 15.8 14.2 12.9 83 1.6 SW 13 19 7 10 1022.4 1022.3 0.0
15/02:30am 15.9 14.6 12.5 80 1.9 SSW 11 15 6 8 1022.4 1022.3 0.0
15/02:00am 16.4 15.6 12.9 80 1.9 SSW 9 15 5 8 1022.7 1022.6 0.0
15/01:30am 16.6 15.5 13.1 80 2.0 SW 11 13 6 7 1023.0 1022.9 0.0
15/01:00am 17.4 15.1 12.9 75 2.5 S 17 19 9 10 1023.1 1023.0 0.0
15/12:30am 18.2 16.5 12.6 70 3.1 S 13 22 7 12 1023.3 1023.2 0.0
15/12:00am 19.3 16.3 13.7 70 3.2 SSE 22 33 12 18 1023.1 1023.0 0.0
 
Date/Time
EST
Temp
°C
App
Temp
°C
Dew
Point
°C
Rel
Hum
%
Delta-T
°C
Wind Press
QNH
hPa
Press
MSL
hPa
Rain since
9am
mm
Dir  Spd
km/h
Gust
km/h
Spd
kts
Gust
kts
14/11:30pm 20.0 16.8 13.2 65 3.9 SSE 22 32 12 17 1023.2 1023.1 0.0
14/11:00pm 19.9 17.9 16.5 81 2.0 SE 22 35 12 19 1023.1 1023.0 0.0
14/10:30pm 19.4 18.0 17.0 86 1.5 SSE 20 26 11 14 1022.8 1022.7 0.0
14/10:00pm 18.7 18.9 16.7 88 1.2 ESE 11 15 6 8 1022.8 1022.7 0.0
14/09:30pm 16.5 15.5 14.7 89 1.0 S 13 19 7 10 1022.5 1022.4 0.0
14/09:00pm 16.8 16.0 15.2 90 0.9 S 13 22 7 12 1022.2 1022.1 0.0
14/08:30pm 16.1 15.5 14.6 91 0.9 N 11 15 6 8 1021.1 1021.0 0.0
14/08:00pm 16.4 15.5 14.9 91 0.9 NNW 13 17 7 9 1020.9 1020.8 0.0
14/07:30pm 16.5 16.5 14.3 87 1.3 NW 7 11 4 6 1020.6 1020.5 0.0
14/07:00pm 16.9 16.1 14.0 83 1.6 N 11 13 6 7 1020.1 1020.0 0.0
14/06:30pm 17.8 18.1 15.1 84 1.6 N 7 7 4 4 1019.8 1019.7 0.0
14/06:00pm 19.0 20.5 15.7 81 1.9 N 2 6 1 3 1019.4 1019.3 0.0
14/05:30pm 19.6 19.2 15.3 76 2.5 NNE 11 15 6 8 1019.0 1018.9 0.0
14/05:00pm 20.9 19.6 15.7 72 3.1 N 17 24 9 13 1018.5 1018.4 0.0
14/04:30pm 21.6 19.7 16.6 73 3.0 NNE 22 30 12 16 1018.3 1018.2 0.0
14/04:00pm 21.9 19.7 16.8 73 3.1 NNE 24 32 13 17 1018.2 1018.1 0.0
14/03:30pm 22.2 19.9 16.7 71 3.4 NNE 24 30 13 16 1018.4 1018.3 0.0
14/03:00pm 22.9 20.4 17.1 70 3.6 NE 26 32 14 17 1018.4 1018.3 0.0
14/02:30pm 23.2 20.7 17.0 68 3.8 NE 26 30 14 16 1018.5 1018.4 0.0
14/02:00pm 23.0 20.6 16.5 67 4.0 NE 24 30 13 16 1018.9 1018.8 0.0
14/01:30pm 23.1 21.2 16.6 67 4.0 NE 22 26 12 14 1019.2 1019.1 0.0
14/01:00pm 23.1 21.3 16.9 68 3.8 NE 22 26 12 14 1019.5 1019.4 0.0
14/12:30pm 22.5 20.4 16.1 67 3.9 NE 22 26 12 14 1020.1 1020.0 0.0
14/12:00pm 22.4 20.7 16.2 68 3.7 ENE 20 24 11 13 1020.8 1020.7 0.0
14/11:30am 22.4 20.7 15.7 66 4.0 ENE 19 20 10 11 1021.4 1021.3 0.0
14/11:00am 22.6 21.5 16.4 68 3.8 E 17 19 9 10 1021.8 1021.7 0.0
14/10:30am 22.0 20.6 15.6 67 3.8 ENE 17 20 9 11 1022.1 1022.0 0.0
14/10:00am 21.7 21.0 15.3 67 3.8 ENE 13 19 7 10 1022.3 1022.2 0.0
14/09:30am 22.3 22.3 14.2 60 4.7 NNW 7 15 4 8 1022.4 1022.3 0.0
14/09:00am 21.4 21.9 15.0 67 3.8 WNW 6 11 3 6 1022.5 1022.4 0.0
14/08:30am 19.6 20.1 15.0 75 2.7 SW 6 9 3 5 1022.9 1022.8 0.0
14/08:00am 17.7 18.2 15.5 87 1.3 WSW 7 9 4 5 1023.0 1022.9 0.0
14/07:30am 15.4 15.7 15.1 98 0.2 W 7 9 4 5 1022.8 1022.7 0.0
14/07:00am 13.7 13.6 13.4 98 0.2 WNW 6 7 3 4 1022.6 1022.5 0.0
14/06:37am 12.4 11.7 11.9 97 0.3 WNW 7 9 4 5 1022.5 1022.4 0.0
14/06:30am 12.0 11.1 11.5 97 0.3 WNW 7 9 4 5 1022.4 1022.3 0.0
14/06:00am 10.3 8.6 9.7 96 0.3 WNW 9 9 5 5 1022.1 1022.0 0.0
14/05:41am 10.9 9.9 10.3 96 0.3 WNW 6 7 3 4 1022.0 1021.9 0.0
14/05:32am 11.0 9.8 10.4 96 0.3 WNW 7 7 4 4 1021.9 1021.8 0.0
14/05:30am 11.1 10.0 10.5 96 0.3 WNW 7 7 4 4 1021.9 1021.8 0.0
14/05:09am 11.0 9.8 10.4 96 0.3 WNW 7 9 4 5 1021.8 1021.7 0.0
14/05:00am 11.3 10.2 10.7 96 0.3 WNW 7 9 4 5 1021.8 1021.7 0.0
14/04:52am 11.4 10.0 10.8 96 0.3 WNW 9 9 5 5 1021.7 1021.6 0.0
14/04:30am 11.3 10.2 10.7 96 0.3 WNW 7 9 4 5 1021.5 1021.4 0.0
14/04:06am 11.9 11.2 11.3 96 0.3 WNW 6 9 3 5 1021.5 1021.4 0.0
14/04:00am 11.8 11.0 11.2 96 0.3 WNW 6 7 3 4 1021.5 1021.4 0.0
14/03:48am 11.7 10.7 10.9 95 0.4 WNW 7 9 4 5 1021.5 1021.4 0.0
14/03:36am 11.5 10.0 10.6 94 0.5 WNW 9 11 5 6 1021.4 1021.3 0.0
14/03:30am 11.6 9.8 10.7 94 0.5 WNW 11 11 6 6 1021.4 1021.3 0.0
14/03:00am 12.2 11.2 11.1 93 0.6 W 7 7 4 4 1021.3 1021.2 0.0
14/02:30am 12.3 10.9 11.0 92 0.7 WNW 9 9 5 5 1021.6 1021.5 0.0
14/02:00am 14.7 13.9 14.1 96 0.3 WSW 11 13 6 7 1022.0 1021.9 0.0
14/01:30am 12.0 11.2 10.9 93 0.6 WSW 6 9 3 5 1022.3 1022.2 0.0
14/01:00am 12.2 11.1 10.8 91 0.7 WSW 7 9 4 5 1022.5 1022.4 0.0
14/12:30am 12.3 11.1 10.4 88 1.0 SW 7 9 4 5 1022.7 1022.6 0.0
14/12:00am 14.0 12.8 11.7 86 1.2 SW 9 11 5 6 1022.8 1022.7 0.0
 
Date/Time
EST
Temp
°C
App
Temp
°C
Dew
Point
°C
Rel
Hum
%
Delta-T
°C
Wind Press
QNH
hPa
Press
MSL
hPa
Rain since
9am
mm
Dir  Spd
km/h
Gust
km/h
Spd
kts
Gust
kts
13/11:30pm 14.8 13.5 11.2 79 1.9 SW 9 11 5 6 1022.8 1022.7 0.0
13/11:00pm 15.7 14.2 11.9 78 2.1 SW 11 13 6 7 1022.6 1022.5 0.0
13/10:30pm 15.5 13.9 11.5 77 2.2 SW 11 13 6 7 1022.6 1022.5 0.0
13/10:00pm 13.8 11.8 10.0 78 2.0 WSW 11 13 6 7 1022.6 1022.5 0.0
13/09:30pm 13.9 12.2 9.7 76 2.2 WSW 9 9 5 5 1022.4 1022.3 0.0
13/09:00pm 15.0 13.4 8.9 67 3.1 SSW 7 9 4 5 1022.3 1022.2 0.0
13/08:30pm 17.8 16.4 10.9 64 3.7 SSW 9 13 5 7 1022.0 1021.9 0.0
13/08:00pm 19.4 17.5 13.1 67 3.6 SSE 15 20 8 11 1021.7 1021.6 0.0
13/07:30pm 19.5 16.9 12.0 62 4.2 SSE 17 20 9 11 1021.6 1021.5 0.0
13/07:00pm 20.0 17.0 10.7 55 5.0 SSE 17 20 9 11 1021.3 1021.2 0.0
13/06:30pm 19.7 17.5 10.9 57 4.8 SSE 13 19 7 10 1021.0 1020.9 0.0
13/06:00pm 19.9 18.5 12.2 61 4.3 S 11 13 6 7 1020.5 1020.4 0.0
13/05:30pm 21.5 20.8 13.2 59 4.8 SE 9 13 5 7 1019.8 1019.7 0.0
13/05:00pm 22.3 22.1 13.6 58 5.0 NE 7 9 4 5 1019.2 1019.1 0.0
13/04:30pm 23.1 21.7 13.3 54 5.7 E 13 17 7 9 1018.7 1018.6 0.0
13/04:00pm 23.8 21.0 11.5 46 6.9 E 17 20 9 11 1018.2 1018.1 0.0
13/03:30pm 24.7 21.5 8.6 36 8.6 E 15 19 8 10 1017.9 1017.8 0.0
13/03:00pm 24.9 22.2 8.8 36 8.7 NE 13 19 7 10 1018.0 1017.9 0.0
13/02:30pm 25.3 21.8 8.7 35 9.0 ENE 17 20 9 11 1018.0 1017.9 0.0
13/02:00pm 25.6 22.1 8.6 34 9.2 E 17 22 9 12 1017.9 1017.8 0.0
13/01:30pm 26.0 21.1 5.0 26 10.7 ESE 20 26 11 14 1018.0 1017.9 0.0
13/01:00pm 26.9 23.5 5.8 26 10.9 E 13 17 7 9 1018.2 1018.1 0.0
13/12:30pm 28.5 22.5 -1.6 14 13.8 SSW 20 32 11 17 1018.6 1018.5 0.0
13/12:00pm 28.0 21.3 -4.0 12 14.0 SW 22 35 12 19 1019.0 1018.9 0.0
13/11:30am 27.5 19.9 -5.6 11 14.0 SW 26 37 14 20 1019.4 1019.3 0.0
13/11:00am 26.9 22.0 -3.8 13 13.3 SSW 13 24 7 13 1019.8 1019.7 0.0
13/10:30am 26.6 21.2 2.5 21 11.7 WSW 20 26 11 14 1020.3 1020.2 0.0
13/10:00am 25.9 21.2 3.2 23 11.1 WSW 17 32 9 17 1020.8 1020.7 0.0
13/09:30am 24.4 20.4 6.6 32 9.2 W 17 24 9 13 1021.1 1021.0 0.0
13/09:00am 23.1 20.8 10.5 45 6.9 WNW 13 19 7 10 1021.3 1021.2 0.0
13/08:30am 20.9 18.7 12.1 57 4.9 WNW 15 20 8 11 1021.6 1021.5 0.0
13/08:00am 18.7 16.9 13.3 71 3.0 WNW 15 20 8 11 1021.7 1021.6 0.0
13/07:30am 15.9 14.6 13.7 87 1.2 WNW 13 17 7 9 1021.6 1021.5 0.0
13/07:00am 14.0 12.3 13.5 97 0.3 WNW 15 17 8 9 1021.5 1021.4 0.0
13/06:30am 11.9 9.5 11.3 96 0.3 NW 15 17 8 9 1021.5 1021.4 0.0
13/06:00am 10.2 8.4 9.4 95 0.4 W 9 11 5 6 1021.5 1021.4 0.0
13/05:30am 10.3 8.1 9.4 94 0.4 W 11 13 6 7 1021.3 1021.2 0.0
13/05:00am 11.0 9.8 10.2 95 0.4 W 7 9 4 5 1021.1 1021.0 0.0
13/04:30am 11.5 9.0 10.9 96 0.3 WNW 15 17 8 9 1020.9 1020.8 0.0
13/04:00am 10.4 7.9 9.6 95 0.4 W 13 13 7 7 1021.0 1020.9 0.0
13/03:40am 10.8 9.7 9.9 94 0.5 WNW 6 7 3 4 1021.0 1020.9 0.0
13/03:30am 10.4 9.1 9.3 93 0.5 WNW 6 7 3 4 1021.0 1020.9 0.0
13/03:02am 9.6 8.0 8.2 91 0.7 WNW 6 7 3 4 1021.2 1021.1 0.0
13/03:00am 9.6 8.0 8.2 91 0.7 WNW 6 7 3 4 1021.2 1021.1 0.0
13/02:30am 10.4 9.1 9.2 92 0.6 WNW 6 6 3 3 1021.7 1021.6 0.0
13/02:00am 11.1 10.0 9.9 92 0.6 WNW 6 7 3 4 1022.0 1021.9 0.0
13/01:30am 11.5 10.3 10.2 92 0.7 W 7 9 4 5 1022.2 1022.1 0.0
13/01:00am 11.6 10.1 10.5 93 0.6 WNW 9 11 5 6 1022.5 1022.4 0.0
13/12:30am 11.4 10.3 10.5 94 0.5 W 7 9 4 5 1022.6 1022.5 0.0
13/12:00am 11.3 9.8 10.4 94 0.5 WNW 9 11 5 6 1023.0 1022.9 0.0
 
Date/Time
EST
Temp
°C
App
Temp
°C
Dew
Point
°C
Rel
Hum
%
Delta-T
°C
Wind Press
QNH
hPa
Press
MSL
hPa
Rain since
9am
mm
Dir  Spd
km/h
Gust
km/h
Spd
kts
Gust
kts
12/11:30pm 10.7 8.9 9.5 92 0.6 WNW 9 11 5 6 1023.2 1023.1 0.0
12/11:00pm 10.7 8.5 9.5 92 0.6 NW 11 11 6 6 1023.3 1023.2 0.0
12/10:30pm 10.9 8.7 9.5 91 0.7 NW 11 11 6 6 1023.6 1023.5 0.0
12/10:00pm 11.3 8.9 9.9 91 0.7 NW 13 13 7 7 1023.8 1023.7 0.0
12/09:30pm 11.7 9.4 10.3 91 0.7 NW 13 13 7 7 1024.0 1023.9 0.0
12/09:00pm 11.5 9.0 9.8 89 0.9 NW 13 15 7 8 1024.1 1024.0 0.0
12/08:30pm 11.9 9.9 10.0 88 1.0 NW 11 13 6 7 1024.1 1024.0 0.0
12/08:00pm 12.5 10.8 10.0 85 1.3 NW 9 11 5 6 1024.2 1024.1 0.0
12/07:30pm 13.0 11.4 10.2 83 1.4 NW 9 11 5 6 1024.1 1024.0 0.0
12/07:00pm 14.5 12.8 9.9 74 2.4 N 9 11 5 6 1024.0 1023.9 0.0
12/06:30pm 16.9 14.9 11.4 70 3.0 NE 13 17 7 9 1023.8 1023.7 0.0
12/06:00pm 17.4 15.0 11.4 68 3.2 NE 15 19 8 10 1023.5 1023.4 0.0
12/05:30pm 17.9 15.4 11.2 65 3.6 NE 15 19 8 10 1023.5 1023.4 0.0
12/05:00pm 18.8 16.3 10.9 60 4.3 NE 15 19 8 10 1023.4 1023.3 0.0
12/04:30pm 19.4 16.9 10.9 58 4.6 ENE 15 20 8 11 1023.5 1023.4 0.0

Other formats

Comma delimited format used in spreadsheet applications
http://www.bom.gov.au/fwo/IDQ60801/IDQ60801.94569.axf

JavaScript Object Notation format (JSON) in row-major order
http://www.bom.gov.au/fwo/IDQ60801/IDQ60801.94569.json

Data quality

Most of these data are generated automatically and are frequently updated. Quality checks on data are not normally performed. It is possible for incorrect values to appear. Refer to information at About Latest Weather Observations and please check the disclaimer before using these data.